Time;durP1;ratioP1;P1;durP2;ratioP2;P2;SDS_P1;SDS_P2;PMS_P1;PMS_P2;Temp;Humidity;BMP_temperature;BMP_pressure;BME280_temperature;BME280_humidity;BME280_pressure;Samples;Min_cycle;Max_cycle;Signal;HPM_P1;HPM_P2
2022/10/13 00:00:59;;;;;;;28.80;12.37;;;;;;;2.99;100.00;100371.01;1676707;85;20944;-72
2022/10/13 00:03:29;;;;;;;20.02;10.93;;;;;;;3.06;100.00;100370.84;1657641;85;21011;-72
2022/10/13 00:05:58;;;;;;;31.40;12.73;;;;;;;3.13;100.00;100369.33;1677019;85;21007;-72
2022/10/13 00:08:29;;;;;;;25.68;11.15;;;;;;;3.19;100.00;100366.45;1672746;85;21101;-73
2022/10/13 00:10:56;;;;;;;31.68;12.68;;;;;;;3.28;100.00;100369.57;1676541;85;20991;-72
2022/10/13 00:13:28;;;;;;;30.32;12.63;;;;;;;3.36;100.00;100362.91;1676793;85;20893;-74
2022/10/13 00:16:00;;;;;;;25.17;12.73;;;;;;;3.44;100.00;100364.67;1676517;85;20904;-75
2022/10/13 00:18:30;;;;;;;28.27;12.60;;;;;;;3.51;100.00;100360.39;1676895;85;21538;-74
2022/10/13 00:21:02;;;;;;;22.75;11.43;;;;;;;3.56;100.00;100356.39;1676848;85;21163;-74
2022/10/13 00:23:36;;;;;;;25.70;12.63;;;;;;;3.60;100.00;100355.64;1676761;85;20957;-74
2022/10/13 00:26:06;;;;;;;24.82;12.00;;;;;;;3.66;100.00;100355.18;1657192;85;21016;-73
2022/10/13 00:28:37;;;;;;;28.27;12.63;;;;;;;3.73;100.00;100358.53;1676869;85;21511;-73
2022/10/13 00:31:27;;;;;;;28.80;12.93;;;;;;;3.80;100.00;100355.64;1676396;85;20928;-72
2022/10/13 00:34:00;;;;;;;36.53;14.55;;;;;;;3.89;100.00;100363.10;1676570;84;21852;-73
2022/10/13 00:36:31;;;;;;;36.88;16.70;;;;;;;3.97;100.00;100365.92;1675508;85;21083;-73
2022/10/13 00:38:57;;;;;;;30.35;15.13;;;;;;;4.03;100.00;100355.94;1676788;85;21023;-73
2022/10/13 00:41:32;;;;;;;32.38;14.70;;;;;;;4.06;100.00;100356.22;1650840;87;21498;-72
2022/10/13 00:44:08;;;;;;;30.85;13.45;;;;;;;4.12;100.00;100359.28;1631399;87;20994;-72
2022/10/13 00:46:40;;;;;;;28.62;12.78;;;;;;;4.19;100.00;100357.73;1616194;87;21290;-72
2022/10/13 00:49:10;;;;;;;;;;;;;;;4.22;100.00;100358.59;1650227;87;20956;-74
2022/10/13 00:51:48;;;;;;;24.85;12.35;;;;;;;4.26;100.00;100357.83;1597365;88;20092;-73
2022/10/13 00:54:22;;;;;;;30.20;12.37;;;;;;;4.28;100.00;100350.78;1620561;88;20987;-72
2022/10/13 00:56:51;;;;;;;24.52;11.05;;;;;;;4.28;100.00;100352.13;1647335;87;21110;-73
2022/10/13 00:59:27;;;;;;;23.52;9.70;;;;;;;4.41;100.00;100357.72;1647411;87;21214;-73
2022/10/13 01:02:00;;;;;;;20.30;9.73;;;;;;;4.41;100.00;100357.72;1648007;87;21363;-74
2022/10/13 01:04:36;;;;;;;20.48;10.40;;;;;;;4.44;100.00;100368.91;1629067;87;21000;-73
2022/10/13 01:07:07;;;;;;;22.10;9.63;;;;;;;4.44;100.00;100366.19;1629134;87;20916;-75
2022/10/13 01:09:38;;;;;;;23.52;9.48;;;;;;;4.44;100.00;100366.19;1619389;88;21324;-75
2022/10/13 01:12:40;;;;;;;16.15;8.63;;;;;;;4.45;100.00;100361.03;1647734;86;21633;-78
2022/10/13 01:15:33;;;;;;;16.52;8.48;;;;;;;4.47;100.00;100356.16;1617783;88;21039;-75
2022/10/13 01:18:10;;;;;;;18.98;9.33;;;;;;;4.51;100.00;100354.57;1647475;87;21029;-75
2022/10/13 01:21:04;;;;;;;21.95;9.40;;;;;;;4.51;100.00;100354.57;1597034;88;21091;-75
2022/10/13 01:23:57;;;;;;;18.75;8.58;;;;;;;4.52;100.00;100358.94;1617308;88;21526;-80
2022/10/13 01:27:21;;;;;;;20.55;9.30;;;;;;;4.56;100.00;100354.63;1648452;86;21625;-81
2022/10/13 01:29:54;;;;;;;18.52;9.03;;;;;;;4.55;100.00;100352.98;1618099;88;21558;-80
2022/10/13 01:32:47;;;;;;;19.57;8.83;;;;;;;4.56;100.00;100355.98;1648493;86;21495;-76
2022/10/13 01:35:32;;;;;;;19.85;9.93;;;;;;;4.53;100.00;100355.13;1647872;85;20968;-83
2022/10/13 01:38:32;;;;;;;19.10;9.08;;;;;;;4.52;100.00;100364.38;1647812;87;21050;-74
2022/10/13 01:41:28;;;;;;;23.18;9.70;;;;;;;4.51;100.00;100360.55;1616911;88;21371;-74
2022/10/13 01:44:22;;;;;;;20.95;9.23;;;;;;;4.51;100.00;100360.55;1616699;88;21543;-75
2022/10/13 01:46:54;;;;;;;16.65;9.13;;;;;;;4.52;100.00;100352.13;1673285;85;20984;-75
2022/10/13 01:49:30;;;;;;;24.75;9.43;;;;;;;4.58;100.00;100361.98;1673072;84;20967;-74
2022/10/13 01:52:02;;;;;;;22.93;8.65;;;;;;;4.58;100.00;100361.98;1645101;86;21091;-72
2022/10/13 01:54:33;;;;;;;22.90;9.38;;;;;;;4.56;100.00;100357.34;1646242;86;21023;-74
2022/10/13 01:57:01;;;;;;;16.40;8.90;;;;;;;4.55;100.00;100361.14;1647658;86;20940;-76
2022/10/13 01:59:29;;;;;;;19.62;8.50;;;;;;;4.58;100.00;100351.65;1641858;86;21008;-74
2022/10/13 02:02:20;;;;;;;28.23;9.48;;;;;;;4.58;100.00;100355.73;1620066;87;21031;-74
2022/10/13 02:05:10;;;;;;;18.07;8.45;;;;;;;4.57;100.00;100357.62;1636949;86;20942;-73
2022/10/13 02:07:55;;;;;;;22.02;9.63;;;;;;;4.57;100.00;100357.62;1643878;86;20959;-73
2022/10/13 02:10:38;;;;;;;24.45;9.33;;;;;;;4.58;100.00;100355.73;1635285;86;20960;-74
2022/10/13 02:13:10;;;;;;;22.87;9.33;;;;;;;4.57;100.00;100358.16;1617561;85;21031;-73
2022/10/13 02:15:46;;;;;;;16.45;8.70;;;;;;;4.59;100.00;100359.55;1641952;86;21057;-74
2022/10/13 02:18:21;;;;;;;18.37;8.43;;;;;;;4.61;100.00;100360.66;1619961;86;20995;-71
2022/10/13 02:20:53;;;;;;;18.73;8.95;;;;;;;4.59;100.00;100358.19;1641385;86;21235;-73
2022/10/13 02:23:23;;;;;;;17.55;8.38;;;;;;;4.59;100.00;100359.55;1637843;86;21628;-73
2022/10/13 02:25:55;;;;;;;19.90;9.55;;;;;;;4.59;100.00;100364.98;1631123;87;20988;-73
2022/10/13 02:28:33;;;;;;;22.70;9.45;;;;;;;4.59;100.00;100364.98;1619981;87;21529;-72
2022/10/13 02:31:05;;;;;;;16.77;9.35;;;;;;;4.57;100.00;100354.09;1647039;85;20983;-72
2022/10/13 02:33:34;;;;;;;20.62;10.10;;;;;;;4.57;100.00;100354.09;1641331;86;22182;-72
2022/10/13 02:36:09;;;;;;;20.17;9.30;;;;;;;4.55;100.00;100357.06;1645323;85;20916;-73
2022/10/13 02:38:37;;;;;;;29.50;10.32;;;;;;;4.63;100.00;100355.20;1675320;84;21495;-73
2022/10/13 02:41:14;;;;;;;26.07;11.00;;;;;;;4.72;100.00;100361.01;1672784;85;20920;-72
2022/10/13 02:43:45;;;;;;;23.22;9.73;;;;;;;4.72;100.00;100361.01;1673345;85;20964;-72
2022/10/13 02:46:14;;;;;;;20.92;9.83;;;;;;;4.77;100.00;100358.87;1653556;85;20889;-73
2022/10/13 02:48:44;;;;;;;28.75;10.35;;;;;;;4.79;100.00;100356.72;1673449;84;21039;-73
2022/10/13 02:51:13;;;;;;;19.55;9.30;;;;;;;4.86;100.00;100364.13;1673223;85;20916;-72
2022/10/13 02:53:46;;;;;;;30.77;10.93;;;;;;;4.88;100.00;100349.73;1636449;87;20921;-72
2022/10/13 02:56:15;;;;;;;18.97;9.77;;;;;;;4.88;100.00;100347.83;1673450;85;21004;-73
2022/10/13 02:58:47;;;;;;;20.43;10.10;;;;;;;4.90;100.00;100351.66;1673900;85;21436;-72
2022/10/13 03:01:18;;;;;;;22.35;10.28;;;;;;;4.76;100.00;100351.25;1674124;85;20901;-73
2022/10/13 03:03:49;;;;;;;26.50;10.50;;;;;;;4.67;100.00;100350.61;1673943;85;20897;-73
2022/10/13 03:06:22;;;;;;;25.65;10.63;;;;;;;4.67;100.00;100350.61;1673327;84;20987;-73
2022/10/13 03:08:49;;;;;;;29.12;10.80;;;;;;;4.61;100.00;100356.03;1672921;85;21460;-73
2022/10/13 03:11:20;;;;;;;25.70;10.75;;;;;;;4.57;100.00;100354.91;1673419;85;22165;-73
2022/10/13 03:13:47;;;;;;;19.00;9.73;;;;;;;4.54;100.00;100354.59;1674137;84;20987;-73
2022/10/13 03:16:16;;;;;;;23.20;10.10;;;;;;;4.31;100.00;100361.14;1675275;85;21518;-72
2022/10/13 03:18:45;;;;;;;26.95;10.55;;;;;;;4.31;100.00;100361.14;1675121;85;20908;-72
2022/10/13 03:21:15;;;;;;;20.25;9.78;;;;;;;4.21;100.00;100359.66;1672218;85;21020;-72
2022/10/13 03:23:47;;;;;;;19.00;9.48;;;;;;;4.13;100.00;100360.93;1675190;85;21794;-72
2022/10/13 03:26:17;;;;;;;22.15;10.15;;;;;;;4.13;100.00;100365.01;1675022;85;20975;-72
2022/10/13 03:28:52;;;;;;;19.65;9.18;;;;;;;4.10;100.00;100364.69;1675129;85;21533;-72
2022/10/13 03:31:23;;;;;;;23.10;10.25;;;;;;;4.02;100.00;100361.09;1655667;85;20940;-73
2022/10/13 03:33:55;;;;;;;22.32;9.75;;;;;;;3.96;100.00;100365.63;1658455;85;21460;-73
2022/10/13 03:36:24;;;;;;;18.75;9.80;;;;;;;3.89;100.00;100356.31;1675528;85;21132;-72
2022/10/13 03:38:53;;;;;;;20.45;10.45;;;;;;;3.86;100.00;100362.78;1642319;86;20876;-72
2022/10/13 03:41:24;;;;;;;16.87;9.35;;;;;;;3.87;100.00;100357.10;1654919;85;21574;-72
2022/10/13 03:43:56;;;;;;;21.73;9.65;;;;;;;3.86;100.00;100362.25;1655251;85;20987;-73
2022/10/13 03:46:25;;;;;;;22.60;10.10;;;;;;;3.84;100.00;100360.32;1645572;86;20988;-72
2022/10/13 03:48:55;;;;;;;21.27;10.78;;;;;;;3.84;100.00;100358.96;1673471;85;21102;-72
2022/10/13 03:51:26;;;;;;;25.72;10.78;;;;;;;3.90;100.00;100362.03;1653965;85;20955;-72
2022/10/13 03:53:56;;;;;;;26.45;10.63;;;;;;;3.98;100.00;100364.84;1672813;85;21079;-73
2022/10/13 03:56:26;;;;;;;25.85;11.25;;;;;;;4.02;100.00;100365.98;1672523;85;21650;-73
2022/10/13 03:59:03;;;;;;;25.10;10.75;;;;;;;4.07;100.00;100358.41;1690456;84;20970;-72
2022/10/13 04:01:34;;;;;;;23.60;12.18;;;;;;;4.11;100.00;100357.64;1665637;84;21506;-73
2022/10/13 04:04:06;;;;;;;24.35;11.22;;;;;;;4.18;100.00;100360.99;1692884;84;20939;-73
2022/10/13 04:06:42;;;;;;;23.15;11.10;;;;;;;4.22;100.00;100362.13;1675270;84;20952;-73
2022/10/13 04:09:12;;;;;;;24.15;11.63;;;;;;;4.27;100.00;100361.37;1663153;85;20988;-73
2022/10/13 04:11:44;;;;;;;26.25;10.93;;;;;;;4.30;100.00;100355.42;1657887;85;21535;-72
2022/10/13 04:14:13;;;;;;;21.37;10.78;;;;;;;4.36;100.00;100353.58;1671869;85;21171;-73
2022/10/13 04:16:47;;;;;;;18.75;10.05;;;;;;;4.39;100.00;100353.89;1672494;85;20983;-73
2022/10/13 04:19:18;;;;;;;18.45;9.75;;;;;;;4.44;100.00;100361.28;1653794;85;21031;-73
2022/10/13 04:21:49;;;;;;;18.87;10.40;;;;;;;4.45;100.00;100359.67;1639238;86;20947;-73
2022/10/13 04:24:21;;;;;;;21.75;10.68;;;;;;;4.48;100.00;100361.88;1642546;86;21039;-72
2022/10/13 04:26:55;;;;;;;19.70;10.10;;;;;;;4.48;100.00;100363.23;1643725;86;21086;-71
2022/10/13 04:29:24;;;;;;;21.07;10.90;;;;;;;4.50;100.00;100369.24;1678622;85;20920;-72
2022/10/13 04:31:58;;;;;;;19.40;10.60;;;;;;;4.52;100.00;100364.91;1678268;85;21585;-74
2022/10/13 04:34:30;;;;;;;25.12;11.08;;;;;;;4.54;100.00;100360.03;1674436;84;20968;-72
2022/10/13 04:37:00;;;;;;;19.60;10.88;;;;;;;4.57;100.00;100358.16;1682526;85;21003;-72
2022/10/13 04:39:27;;;;;;;17.92;9.78;;;;;;;4.59;100.00;100362.80;1672430;85;21125;-72
2022/10/13 04:41:58;;;;;;;22.60;11.10;;;;;;;4.67;100.00;100355.52;1676018;85;20995;-73
2022/10/13 04:44:26;;;;;;;19.55;10.45;;;;;;;4.73;100.00;100353.67;1671768;84;21063;-74
2022/10/13 04:46:54;;;;;;;20.70;11.12;;;;;;;4.73;100.00;100353.67;1652196;85;20952;-73
2022/10/13 04:49:29;;;;;;;21.90;10.88;;;;;;;4.82;100.00;100357.56;1651897;85;20999;-72
2022/10/13 04:52:01;;;;;;;19.05;10.30;;;;;;;4.90;100.00;100355.73;1652242;85;21508;-72
2022/10/13 04:54:36;;;;;;;22.22;10.75;;;;;;;5.03;100.00;100347.69;1671188;84;21539;-72
2022/10/13 04:57:10;;;;;;;19.07;10.48;;;;;;;5.12;100.00;100360.55;1671440;84;21023;-73
2022/10/13 04:59:37;;;;;;;24.05;9.60;;;;;;;5.12;100.00;100360.55;1672127;84;20988;-74
2022/10/13 05:02:09;;;;;;;24.47;10.25;;;;;;;5.18;100.00;100352.71;1638763;86;21054;-79
2022/10/13 05:04:38;;;;;;;21.23;10.32;;;;;;;5.27;100.00;100360.64;1617248;87;21270;-78
2022/10/13 05:07:06;;;;;;;26.67;11.37;;;;;;;5.33;100.00;100361.50;1624961;87;20959;-82
2022/10/13 05:09:33;;;;;;;20.50;10.03;;;;;;;5.42;100.00;100359.94;1624274;88;21028;-91
2022/10/13 05:12:02;;;;;;;23.18;9.88;;;;;;;5.45;100.00;100353.15;1625827;88;20967;-87
2022/10/13 05:14:33;;;;;;;26.48;10.48;;;;;;;5.52;100.00;100363.27;1640115;86;21046;-82
2022/10/13 05:17:01;;;;;;;19.17;9.83;;;;;;;5.60;100.00;100375.04;1622090;86;21587;-84
2022/10/13 05:19:28;;;;;;;29.75;10.93;;;;;;;5.67;100.00;100370.18;1621603;88;21008;-79
2022/10/13 05:21:58;;;;;;;21.52;9.33;;;;;;;5.74;100.00;100366.68;1621592;88;21039;-82
2022/10/13 05:24:38;;;;;;;21.35;11.28;;;;;;;5.84;100.00;100375.42;1621603;88;21088;-80
2022/10/13 05:27:06;;;;;;;34.00;11.22;;;;;;;5.92;100.00;100373.05;1621714;88;20913;-77
2022/10/13 05:29:33;;;;;;;34.80;11.43;;;;;;;6.02;100.00;100375.55;1621653;88;22016;-78
2022/10/13 05:32:00;;;;;;;27.62;10.82;;;;;;;6.09;100.00;100376.95;1621340;88;21007;-77
2022/10/13 05:34:28;;;;;;;23.55;11.20;;;;;;;6.15;100.00;100384.06;1621349;87;21110;-75
2022/10/13 05:36:56;;;;;;;19.48;10.75;;;;;;;6.19;100.00;100373.45;1621483;88;20988;-78
2022/10/13 05:39:22;;;;;;;26.97;12.63;;;;;;;6.24;100.00;100370.75;1621429;88;21019;-73
2022/10/13 05:41:49;;;;;;;23.45;11.83;;;;;;;6.31;100.00;100372.68;1622889;87;21535;-73
2022/10/13 05:44:21;;;;;;;27.48;11.50;;;;;;;6.36;100.00;100374.58;1610377;88;21034;-78
2022/10/13 05:47:02;;;;;;;27.13;11.83;;;;;;;6.42;100.00;100374.33;1623582;88;21779;-76
2022/10/13 05:49:40;;;;;;;22.40;10.50;;;;;;;6.52;100.00;100378.45;1604004;88;21015;-77
2022/10/13 05:52:11;;;;;;;20.27;9.88;;;;;;;6.67;100.00;100379.58;1624526;88;21103;-78
2022/10/13 05:54:42;;;;;;;21.50;10.10;;;;;;;6.80;100.00;100379.06;1624568;88;20949;-77
2022/10/13 05:57:18;;;;;;;19.35;10.25;;;;;;;6.87;100.00;100381.80;1625251;88;21041;-82
2022/10/13 06:00:01;;;;;;;22.60;11.85;;;;;;;6.94;100.00;100384.23;1625792;88;20938;-77
2022/10/13 06:02:36;;;;;;;25.57;12.78;;;;;;;7.04;100.00;100384.80;1624626;88;21541;-77
2022/10/13 06:05:04;;;;;;;21.73;9.83;;;;;;;7.14;100.00;100386.16;1625442;88;21030;-86
2022/10/13 06:07:35;;;;;;;31.10;10.45;;;;;;;7.21;100.00;100392.17;1626044;87;21125;-83
2022/10/13 06:10:08;;;;;;;30.10;10.43;;;;;;;7.28;100.00;100386.72;1625696;88;21593;-75
2022/10/13 06:12:45;;;;;;;18.95;9.08;;;;;;;7.37;100.00;100386.98;1605858;88;21540;-76
2022/10/13 06:15:15;;;;;;;19.92;8.98;;;;;;;7.42;100.00;100391.08;1605635;88;21002;-78
2022/10/13 06:17:47;;;;;;;21.77;9.48;;;;;;;7.45;100.00;100391.91;1625439;87;21004;-77
2022/10/13 06:20:19;;;;;;;22.30;10.13;;;;;;;7.47;100.00;100390.27;1624621;88;21253;-76
2022/10/13 06:22:49;;;;;;;27.50;9.85;;;;;;;7.54;100.00;100389.41;1565791;89;21026;-76
2022/10/13 06:25:20;;;;;;;26.12;10.15;;;;;;;7.62;100.00;100386.94;1607264;87;27196;-80
2022/10/13 06:27:49;;;;;;;22.25;9.05;;;;;;;7.75;100.00;100388.83;1626751;87;21034;-80
2022/10/13 06:30:20;;;;;;;24.00;8.48;;;;;;;7.85;100.00;100380.61;1623127;88;21086;-83
2022/10/13 06:32:50;;;;;;;16.57;8.18;;;;;;;7.89;100.00;100388.53;1608182;88;21063;-82
2022/10/13 06:35:19;;;;;;;18.73;7.70;;;;;;;7.99;100.00;100386.31;1610268;87;21040;-85
2022/10/13 06:37:49;;;;;;;25.12;8.75;;;;;;;8.12;100.00;100389.80;1630549;88;21106;-82
2022/10/13 06:40:20;;;;;;;19.25;8.45;;;;;;;8.25;100.00;100390.57;1611435;87;21006;-87
2022/10/13 06:42:52;;;;;;;27.82;8.30;;;;;;;8.34;100.00;100398.50;1630803;87;21087;-77
2022/10/13 06:45:24;;;;;;;17.55;7.80;;;;;;;8.40;100.00;100397.38;1628258;88;21555;-79
2022/10/13 06:47:54;;;;;;;20.82;7.70;;;;;;;8.48;100.00;100391.33;1636367;85;21464;-76
2022/10/13 06:50:28;;;;;;;21.82;8.58;;;;;;;8.62;100.00;100392.08;1621552;86;20999;-83
2022/10/13 06:52:58;;;;;;;19.40;8.18;;;;;;;8.72;100.00;100394.73;1673127;85;20952;-78
2022/10/13 06:55:24;;;;;;;17.25;7.97;;;;;;;8.84;100.00;100391.09;1672529;85;21023;-80
2022/10/13 06:57:53;;;;;;;14.15;7.45;;;;;;;8.92;100.00;100391.88;1644129;86;21036;-78
2022/10/13 07:03:07;;;;;;;25.00;8.15;;;;;;;9.02;100.00;100401.38;1642374;85;20925;-81
2022/10/13 07:05:36;;;;;;;20.37;8.07;;;;;;;9.12;100.00;100395.02;1604538;88;21535;-79
2022/10/13 07:08:08;;;;;;;21.33;8.73;;;;;;;9.18;100.00;100400.17;1615487;88;21601;-80
2022/10/13 07:10:37;;;;;;;18.67;7.92;;;;;;;9.26;100.00;100394.05;1623183;88;21185;-81
2022/10/13 07:13:07;;;;;;;20.17;7.92;;;;;;;9.33;100.00;100397.84;1615040;88;20982;-81
2022/10/13 07:15:45;;;;;;;23.65;8.73;;;;;;;9.42;100.00;100387.89;1626676;88;21033;-82
2022/10/13 07:18:15;;;;;;;23.12;9.45;;;;;;;9.51;100.00;100384.80;1638174;87;21002;-84
2022/10/13 07:20:46;;;;;;;30.10;10.03;;;;;;;9.59;100.00;100395.14;1625190;87;21126;-78
2022/10/13 07:23:19;;;;;;;19.48;10.48;;;;;;;9.69;100.00;100387.38;1623274;88;21164;-78
2022/10/13 07:25:56;;;;;;;24.30;10.88;;;;;;;9.84;100.00;100391.86;1623571;87;21055;-82
2022/10/13 07:28:26;;;;;;;25.32;10.40;;;;;;;9.98;100.00;100389.25;1617187;88;21600;-83
2022/10/13 07:30:55;;;;;;;27.32;10.20;;;;;;;10.03;100.00;100384.52;1627459;87;21681;-84
2022/10/13 07:33:26;;;;;;;20.10;9.68;;;;;;;10.05;100.00;100388.34;1623423;88;21125;-79
2022/10/13 07:36:02;;;;;;;24.27;9.57;;;;;;;10.13;100.00;100383.03;1662565;86;21172;-81
2022/10/13 07:38:42;;;;;;;22.25;8.88;;;;;;;10.17;100.00;100379.97;1667835;85;20968;-83
2022/10/13 07:41:16;;;;;;;22.77;8.15;;;;;;;10.22;99.79;100386.80;1647887;84;20956;-79
2022/10/13 07:43:46;;;;;;;22.85;8.20;;;;;;;10.28;99.43;100386.19;1667087;86;21051;-80
2022/10/13 07:46:19;;;;;;;16.82;8.60;;;;;;;10.37;98.89;100391.28;1666964;85;21575;-79
2022/10/13 07:48:47;;;;;;;16.60;8.10;;;;;;;10.44;98.36;100388.97;1648288;86;21161;-88
2022/10/13 07:51:13;;;;;;;18.95;7.85;;;;;;;10.48;96.59;100386.45;1667286;84;21060;-72
2022/10/13 07:53:42;;;;;;;23.22;8.85;;;;;;;10.54;96.87;100388.02;1666800;85;21488;-73
2022/10/13 07:56:10;;;;;;;20.12;8.58;;;;;;;10.62;95.60;100389.30;1668139;86;21052;-83
2022/10/13 07:58:40;;;;;;;20.80;7.47;;;;;;;10.71;96.02;100394.39;1668135;86;21557;-74
2022/10/13 08:01:11;;;;;;;23.90;8.10;;;;;;;10.86;94.66;100388.12;1665963;84;21348;-77
2022/10/13 08:03:42;;;;;;;18.10;7.03;;;;;;;10.95;93.50;100388.27;1654914;85;21474;-75
2022/10/13 08:06:09;;;;;;;22.70;7.50;;;;;;;10.99;90.90;100387.91;1657183;85;21003;-88
2022/10/13 08:08:39;;;;;;;18.50;7.55;;;;;;;11.02;91.20;100389.23;1654815;85;21066;-79
2022/10/13 08:11:12;;;;;;;22.80;6.90;;;;;;;11.12;90.44;100386.34;1654611;85;20943;-87
2022/10/13 08:13:41;;;;;;;15.48;7.05;;;;;;;11.23;89.68;100391.93;1656088;85;21251;-78
2022/10/13 08:16:11;;;;;;;15.30;6.55;;;;;;;11.34;88.64;100387.91;1652002;86;20996;-79
2022/10/13 08:18:39;;;;;;;16.97;6.33;;;;;;;11.36;86.67;100390.35;1654891;85;21023;-82
2022/10/13 08:21:13;;;;;;;17.85;7.40;;;;;;;11.31;85.20;100391.25;1656710;85;21054;-79
2022/10/13 08:23:58;;;;;;;25.08;7.15;;;;;;;11.33;86.81;100387.64;1655728;85;20995;-76
2022/10/13 08:26:32;;;;;;;22.95;7.40;;;;;;;11.48;86.27;100387.95;1640792;85;21059;-76
2022/10/13 08:29:14;;;;;;;18.40;7.80;;;;;;;11.58;86.59;100386.37;1657602;86;20997;-82
2022/10/13 08:31:42;;;;;;;17.15;8.50;;;;;;;11.67;84.51;100384.55;1646366;86;20973;-81
2022/10/13 08:34:09;;;;;;;15.30;8.20;;;;;;;11.68;85.11;100382.06;1645609;86;21046;-81
2022/10/13 08:36:36;;;;;;;23.50;8.50;;;;;;;11.76;86.03;100382.74;1648968;87;21502;-78
2022/10/13 08:39:04;;;;;;;18.25;7.28;;;;;;;11.88;85.50;100385.03;1648217;85;21619;-81
2022/10/13 08:41:34;;;;;;;15.70;6.25;;;;;;;11.94;82.57;100383.82;1648549;85;20982;-80
2022/10/13 08:44:08;;;;;;;24.07;8.78;;;;;;;11.95;83.02;100387.39;1647879;87;21141;-80
2022/10/13 08:46:54;;;;;;;15.60;6.53;;;;;;;11.98;82.80;100386.22;1647822;87;21058;-81
2022/10/13 08:49:21;;;;;;;15.18;6.22;;;;;;;12.05;82.22;100387.19;1648259;87;21055;-78
2022/10/13 08:51:49;;;;;;;17.50;6.25;;;;;;;12.11;81.56;100381.84;1648426;85;21094;-88
2022/10/13 08:54:16;;;;;;;13.90;6.35;;;;;;;12.18;80.72;100387.73;1648443;87;21494;-80
2022/10/13 08:56:45;;;;;;;16.62;6.72;;;;;;;12.21;80.54;100389.87;1648673;87;20951;-78
2022/10/13 08:59:13;;;;;;;20.25;7.08;;;;;;;12.27;81.06;100387.83;1648612;85;21494;-76
2022/10/13 09:01:41;;;;;;;16.93;6.42;;;;;;;12.36;81.21;100388.75;1651633;85;21572;-88
2022/10/13 09:04:35;;;;;;;16.70;6.15;;;;;;;12.48;80.83;100387.66;1672569;85;21218;-86
2022/10/13 09:07:09;;;;;;;16.32;6.00;;;;;;;12.52;80.66;100390.88;1663354;85;20991;-81
2022/10/13 09:09:38;;;;;;;12.68;5.58;;;;;;;12.62;80.26;100395.34;1682721;84;20920;-73
2022/10/13 09:12:04;;;;;;;12.85;5.75;;;;;;;12.73;80.39;100396.73;1682653;85;21003;-76
2022/10/13 09:14:37;;;;;;;16.85;6.22;;;;;;;12.79;79.41;100396.05;1682920;84;20972;-76
2022/10/13 09:17:22;;;;;;;17.27;6.80;;;;;;;12.83;79.23;100398.44;1630905;87;21280;-79
2022/10/13 09:20:07;;;;;;;15.80;6.10;;;;;;;12.90;78.64;100400.21;1660636;85;20982;-81
2022/10/13 09:22:37;;;;;;;14.05;5.33;;;;;;;12.94;78.69;100393.52;1662126;85;21078;-79
2022/10/13 09:25:18;;;;;;;17.07;5.45;;;;;;;12.99;75.66;100399.73;1684807;85;21034;-73
2022/10/13 09:27:52;;;;;;;12.90;5.62;;;;;;;12.96;75.31;100398.97;1686776;85;21074;-75
2022/10/13 09:30:35;;;;;;;13.98;6.15;;;;;;;12.97;76.19;100393.71;1685341;85;21558;-80
2022/10/13 09:33:14;;;;;;;13.20;6.42;;;;;;;13.05;76.54;100388.84;1676842;85;21042;-83
2022/10/13 09:36:02;;;;;;;13.80;6.03;;;;;;;13.18;76.23;100389.38;1676973;85;21544;-79
2022/10/13 09:38:28;;;;;;;13.72;4.60;;;;;;;13.22;75.91;100385.44;1686990;85;21546;-78
2022/10/13 09:41:03;;;;;;;12.20;3.90;;;;;;;13.31;76.30;100390.98;1687684;84;20975;-76
2022/10/13 09:43:42;;;;;;;10.45;4.12;;;;;;;13.37;74.84;100382.84;1687633;85;21169;-78
2022/10/13 09:46:23;;;;;;;10.38;3.80;;;;;;;13.42;73.42;100381.34;1662323;85;20943;-86
2022/10/13 09:48:57;;;;;;;12.90;3.92;;;;;;;13.46;74.37;100382.34;1687742;85;21464;-79
2022/10/13 09:51:37;;;;;;;14.10;3.47;;;;;;;13.56;73.50;100377.94;1686912;85;20995;-86
2022/10/13 09:54:37;;;;;;;11.70;3.35;;;;;;;13.67;73.66;100379.87;1684932;85;21022;-83
2022/10/13 09:57:31;;;;;;;7.45;3.25;;;;;;;13.79;73.63;100372.64;1687953;85;21099;-86
2022/10/13 10:00:21;;;;;;;9.13;3.65;;;;;;;13.90;73.47;100370.39;1687258;85;20986;-82
2022/10/13 10:03:10;;;;;;;9.10;2.60;;;;;;;14.05;72.37;100364.45;1686557;83;20988;-77
2022/10/13 10:05:49;;;;;;;8.05;2.75;;;;;;;14.19;71.25;100364.34;1666738;85;21546;-76
2022/10/13 10:08:46;;;;;;;10.65;2.67;;;;;;;14.30;71.16;100362.91;1687278;84;21051;-77
2022/10/13 10:11:20;;;;;;;8.85;2.80;;;;;;;14.32;70.77;100353.73;1675349;84;21343;-77
2022/10/13 10:13:48;;;;;;;16.40;3.67;;;;;;;14.32;70.25;100360.64;1664439;84;21017;-78
2022/10/13 10:16:41;;;;;;;11.03;4.35;;;;;;;14.31;69.87;100359.58;1654408;86;21045;-84
2022/10/13 10:19:24;;;;;;;11.00;3.60;;;;;;;14.29;69.87;100358.52;1668498;84;21524;-77
2022/10/13 10:22:16;;;;;;;26.42;4.40;;;;;;;14.31;69.63;100362.34;1666628;85;21068;-76
2022/10/13 10:24:55;;;;;;;12.10;2.75;;;;;;;14.25;69.25;100361.67;1667703;84;21398;-80
2022/10/13 10:27:38;;;;;;;6.42;2.27;;;;;;;14.18;68.57;100355.80;1667272;86;20945;-77
2022/10/13 10:30:14;;;;;;;9.75;2.62;;;;;;;14.14;69.15;100361.72;1667312;84;21042;-76
2022/10/13 10:33:11;;;;;;;15.00;2.35;;;;;;;14.16;68.95;100360.83;1668431;84;21066;-78
2022/10/13 10:36:02;;;;;;;10.28;2.35;;;;;;;14.20;67.92;100363.20;1640261;86;21093;-81
2022/10/13 10:38:40;;;;;;;13.45;3.22;;;;;;;14.19;66.50;100361.58;1627712;86;21303;-79
2022/10/13 10:41:36;;;;;;;17.65;3.20;;;;;;;14.09;67.80;100353.58;1607019;89;20988;-76
2022/10/13 10:44:40;;;;;;;10.03;2.98;;;;;;;14.07;68.40;100358.61;1638169;87;21092;-76
2022/10/13 10:47:28;;;;;;;11.88;1.80;;;;;;;14.13;68.28;100355.38;1642415;87;21046;-80
2022/10/13 10:50:02;;;;;;;8.80;2.15;;;;;;;14.26;67.44;100353.64;1654010;84;21116;-77
2022/10/13 10:52:54;;;;;;;10.45;2.47;;;;;;;14.26;67.91;100350.88;1669355;84;20991;-74
2022/10/13 10:55:41;;;;;;;14.60;2.65;;;;;;;14.29;67.99;100348.85;1654584;86;20997;-75
2022/10/13 10:58:23;;;;;;;13.55;2.47;;;;;;;14.33;67.01;100342.13;1645268;86;21513;-74
2022/10/13 11:01:12;;;;;;;6.40;2.17;;;;;;;14.34;66.53;100343.75;1638178;86;21073;-72
2022/10/13 11:04:13;;;;;;;10.53;2.20;;;;;;;14.28;66.70;100337.56;1660065;85;21082;-74
2022/10/13 11:06:42;;;;;;;22.85;3.62;;;;;;;14.26;66.23;100334.31;1659960;86;21616;-74
2022/10/13 11:09:12;;;;;;;14.33;4.08;;;;;;;14.30;66.03;100334.48;1660455;86;21652;-75
2022/10/13 11:11:43;;;;;;;20.95;3.22;;;;;;;14.34;67.61;100338.23;1658030;86;21066;-73
2022/10/13 11:14:28;;;;;;;20.92;3.65;;;;;;;14.42;70.24;100339.66;1637700;86;20911;-74
2022/10/13 11:17:12;;;;;;;128.50;26.62;;;;;;;14.57;68.02;100332.02;1628741;87;21171;-76
2022/10/13 11:19:46;;;;;;;32.93;8.88;;;;;;;14.65;66.44;100340.88;1637313;85;22007;-76
2022/10/13 11:22:19;;;;;;;12.65;3.75;;;;;;;14.66;64.70;100334.22;1632139;86;21557;-76
2022/10/13 11:24:52;;;;;;;11.48;3.00;;;;;;;14.58;64.06;100338.59;1660389;86;21003;-74
2022/10/13 11:27:38;;;;;;;15.88;4.65;;;;;;;14.48;63.39;100328.67;1659795;86;21045;-77
2022/10/13 11:30:28;;;;;;;11.10;2.40;;;;;;;14.46;63.77;100332.33;1659181;85;21034;-89
2022/10/13 11:32:55;;;;;;;14.40;3.00;;;;;;;14.41;64.42;100333.05;1640039;86;22387;-81
2022/10/13 11:35:25;;;;;;;15.38;3.40;;;;;;;14.38;65.26;100331.73;1636352;86;20975;-76
2022/10/13 11:38:05;;;;;;;10.13;2.12;;;;;;;14.42;65.03;100329.98;1657973;85;21496;-73
2022/10/13 11:41:09;;;;;;;9.18;2.45;;;;;;;14.49;63.80;100330.86;1658234;86;21054;-74
2022/10/13 11:43:56;;;;;;;9.38;2.40;;;;;;;14.50;63.55;100333.30;1658994;86;21636;-75
2022/10/13 11:46:47;;;;;;;19.50;3.02;;;;;;;14.48;64.31;100333.38;1658869;86;21266;-79
2022/10/13 11:49:25;;;;;;;11.30;2.20;;;;;;;14.50;64.34;100333.88;1659571;86;21473;-83
2022/10/13 11:52:20;;;;;;;18.77;2.50;;;;;;;14.49;63.95;100331.68;1659295;86;21090;-86